Time;durP1;ratioP1;P1;durP2;ratioP2;P2;SDS_P1;SDS_P2;PMS_P1;PMS_P2;Temp;Humidity;BMP_temperature;BMP_pressure;BME280_temperature;BME280_humidity;BME280_pressure;Samples;Min_cycle;Max_cycle;Signal;HPM_P1;HPM_P2
2022/06/15 00:00:45;;;;;;;9.38;4.15;;;14.60;99.90;;;;;;4978791;28;20034;-60
2022/06/15 00:03:13;;;;;;;15.50;4.35;;;14.60;99.90;;;;;;4985809;28;20121;-55
2022/06/15 00:05:42;;;;;;;8.95;4.03;;;14.50;99.90;;;;;;4977552;28;20026;-55
2022/06/15 00:08:08;;;;;;;12.77;4.65;;;14.40;99.90;;;;;;4988263;28;20029;-54
2022/06/15 00:10:34;;;;;;;10.48;4.45;;;14.30;99.90;;;;;;4989878;28;20538;-56
2022/06/15 00:12:59;;;;;;;12.10;4.00;;;14.30;99.90;;;;;;4991001;28;20030;-55
2022/06/15 00:15:25;;;;;;;11.13;4.00;;;14.20;99.90;;;;;;4992179;28;20503;-56
2022/06/15 00:17:51;;;;;;;8.27;3.70;;;14.10;99.90;;;;;;4986592;28;20030;-56
2022/06/15 00:20:16;;;;;;;9.48;3.97;;;14.10;99.90;;;;;;4988423;28;20030;-52
2022/06/15 00:22:42;;;;;;;13.38;4.43;;;14.00;99.90;;;;;;4990599;28;20022;-57
2022/06/15 00:25:09;;;;;;;8.82;4.30;;;13.90;99.90;;;;;;4992211;28;20805;-55
2022/06/15 00:27:35;;;;;;;11.75;4.30;;;13.90;99.90;;;;;;4992166;28;20022;-55
2022/06/15 00:30:02;;;;;;;14.15;4.85;;;13.80;99.90;;;;;;4973834;28;20066;-50
2022/06/15 00:32:27;;;;;;;11.50;5.53;;;13.70;99.90;;;;;;4991882;28;20049;-56
2022/06/15 00:34:53;;;;;;;8.50;3.85;;;13.70;99.90;;;;;;4992168;28;20416;-59
2022/06/15 00:37:19;;;;;;;7.72;4.20;;;13.70;99.90;;;;;;4990579;28;20073;-55
2022/06/15 00:39:44;;;;;;;10.25;4.55;;;13.60;99.90;;;;;;4981726;28;20027;-58
2022/06/15 00:42:12;;;;;;;6.63;4.13;;;13.60;99.90;;;;;;4983215;28;20022;-56
2022/06/15 00:44:39;;;;;;;10.82;5.35;;;13.50;99.90;;;;;;4986738;28;20476;-55
2022/06/15 00:47:22;;;;;;;12.98;5.45;;;13.50;99.90;;;;;;4988756;28;20039;-53
2022/06/15 00:49:51;;;;;;;8.98;4.53;;;13.50;99.90;;;;;;4976554;28;20103;-58
2022/06/15 00:52:24;;;;;;;11.45;4.88;;;13.40;99.90;;;;;;4976332;28;20041;-55
2022/06/15 00:54:50;;;;;;;9.30;4.45;;;13.30;99.90;;;;;;4969024;28;20051;-56
2022/06/15 00:57:16;;;;;;;12.02;4.47;;;13.30;99.90;;;;;;4986683;28;20500;-56
2022/06/15 00:59:53;;;;;;;9.40;4.18;;;13.20;99.90;;;;;;4982258;28;20099;-54
2022/06/15 01:02:20;;;;;;;13.75;5.60;;;13.30;99.90;;;;;;4982480;28;20037;-58
2022/06/15 01:04:53;;;;;;;11.77;5.03;;;13.30;99.90;;;;;;4978171;28;20019;-52
2022/06/15 01:07:37;;;;;;;11.00;5.10;;;13.30;99.90;;;;;;4981324;28;20076;-54
2022/06/15 01:10:25;;;;;;;11.40;4.35;;;13.20;99.90;;;;;;4982608;28;20045;-57
2022/06/15 01:12:51;;;;;;;8.82;3.95;;;13.20;99.90;;;;;;4985486;28;20033;-54
2022/06/15 01:15:30;;;;;;;11.27;4.32;;;13.10;99.90;;;;;;4991705;28;20030;-55
2022/06/15 01:18:02;;;;;;;9.57;4.25;;;13.00;99.90;;;;;;4991686;28;20025;-56
2022/06/15 01:20:31;;;;;;;8.20;4.28;;;13.00;99.90;;;;;;4985134;28;20039;-58
2022/06/15 01:23:26;;;;;;;12.05;4.18;;;13.00;99.90;;;;;;4987775;28;20060;-56
2022/06/15 01:26:45;;;;;;;9.93;4.38;;;13.00;99.90;;;;;;4987148;28;20019;-51
2022/06/15 01:29:14;;;;;;;9.90;4.18;;;12.90;99.90;;;;;;4985095;28;20038;-57
2022/06/15 01:32:22;;;;;;;7.90;3.83;;;12.80;99.90;;;;;;4992943;28;20031;-54
2022/06/15 01:35:16;;;;;;;10.45;4.43;;;12.80;99.90;;;;;;4989221;28;20022;-53
2022/06/15 01:38:19;;;;;;;13.38;4.53;;;12.70;99.90;;;;;;4988596;28;20523;-58
2022/06/15 01:40:47;;;;;;;11.30;4.05;;;12.70;99.90;;;;;;4992374;28;20066;-52
2022/06/15 01:43:18;;;;;;;10.82;4.05;;;12.70;99.90;;;;;;4986387;28;20100;-55
2022/06/15 01:45:45;;;;;;;10.52;4.47;;;12.70;99.90;;;;;;4991829;28;20023;-55
2022/06/15 01:48:14;;;;;;;7.60;3.50;;;12.80;99.90;;;;;;4990687;28;20026;-56
2022/06/15 01:50:50;;;;;;;15.55;3.90;;;12.70;99.90;;;;;;4991480;28;20046;-57
2022/06/15 01:53:30;;;;;;;7.55;3.70;;;12.80;99.90;;;;;;4988376;28;20030;-57
2022/06/15 01:56:05;;;;;;;12.70;4.00;;;12.80;99.90;;;;;;4971629;28;20435;-54
2022/06/15 01:58:34;;;;;;;10.23;4.57;;;12.70;99.90;;;;;;4990052;28;20148;-55
2022/06/15 02:01:21;;;;;;;12.45;5.00;;;12.70;99.90;;;;;;4988848;28;20023;-48
2022/06/15 02:03:54;;;;;;;10.18;3.70;;;12.80;99.90;;;;;;4981880;28;20030;-53
2022/06/15 02:06:51;;;;;;;10.88;3.90;;;12.90;99.90;;;;;;4981295;28;20142;-57
2022/06/15 02:09:24;;;;;;;6.53;3.78;;;12.80;99.90;;;;;;4982922;28;20042;-54
2022/06/15 02:11:50;;;;;;;;;;;12.80;99.90;;;;;;4990737;28;20137;-55
2022/06/15 02:14:25;;;;;;;7.30;3.92;;;12.80;99.90;;;;;;4990433;28;20398;-56
2022/06/15 02:17:02;;;;;;;12.05;4.40;;;12.80;99.90;;;;;;4989221;28;20033;-56
2022/06/15 02:19:39;;;;;;;8.57;4.95;;;12.90;99.90;;;;;;4989144;28;20627;-57
2022/06/15 02:22:10;;;;;;;10.35;4.28;;;12.90;99.90;;;;;;4986478;28;20029;-57
2022/06/15 02:24:37;;;;;;;9.35;3.70;;;12.80;99.90;;;;;;4988878;28;20508;-57
2022/06/15 02:27:05;;;;;;;11.52;5.10;;;12.80;99.90;;;;;;4987728;28;20100;-59
2022/06/15 02:29:34;;;;;;;13.85;5.15;;;12.80;99.90;;;;;;4989596;28;20117;-53
2022/06/15 02:32:00;;;;;;;9.27;4.47;;;12.70;99.90;;;;;;4990552;28;20026;-59
2022/06/15 02:34:27;;;;;;;11.25;5.15;;;12.70;99.90;;;;;;4989539;28;20029;-57
2022/06/15 02:36:53;;;;;;;13.23;5.07;;;12.60;99.90;;;;;;4990633;28;20034;-58
2022/06/15 02:39:19;;;;;;;10.13;4.65;;;12.60;99.90;;;;;;4987340;28;20088;-60
2022/06/15 02:41:45;;;;;;;7.78;4.20;;;12.60;99.90;;;;;;4994958;28;20113;-52
2022/06/15 02:44:16;;;;;;;14.20;4.97;;;12.60;99.90;;;;;;4990279;28;20113;-51
2022/06/15 02:46:46;;;;;;;15.20;4.32;;;12.60;99.90;;;;;;4994627;28;20030;-57
2022/06/15 02:49:13;;;;;;;7.47;4.28;;;12.60;99.90;;;;;;4989103;28;20481;-50
2022/06/15 02:51:55;;;;;;;7.15;3.95;;;12.50;99.90;;;;;;4988609;28;20045;-55
2022/06/15 02:54:32;;;;;;;6.85;3.70;;;12.50;99.90;;;;;;4989424;28;20515;-53
2022/06/15 02:56:58;;;;;;;10.80;4.53;;;12.50;99.90;;;;;;4979709;28;20100;-56
2022/06/15 02:59:23;;;;;;;10.52;4.20;;;12.50;99.90;;;;;;4988533;28;20049;-53
2022/06/15 03:01:49;;;;;;;11.30;4.38;;;12.40;99.90;;;;;;4987423;28;20029;-56
2022/06/15 03:04:15;;;;;;;13.15;4.95;;;12.40;99.90;;;;;;4989000;28;20518;-57
2022/06/15 03:06:41;;;;;;;8.38;4.32;;;12.40;99.90;;;;;;4986437;28;20416;-52
2022/06/15 03:09:07;;;;;;;9.77;4.63;;;12.40;99.90;;;;;;4988837;28;20042;-55
2022/06/15 03:11:32;;;;;;;11.13;4.97;;;12.40;99.90;;;;;;4989150;28;20049;-57
2022/06/15 03:13:58;;;;;;;11.40;4.38;;;12.40;99.90;;;;;;4988015;28;20653;-53
2022/06/15 03:16:24;;;;;;;7.38;4.40;;;12.40;99.90;;;;;;4989204;28;20504;-56
2022/06/15 03:18:50;;;;;;;7.45;4.15;;;12.40;99.90;;;;;;4989288;28;20030;-50
2022/06/15 03:21:16;;;;;;;8.15;4.57;;;12.40;99.90;;;;;;4989793;28;20034;-55
2022/06/15 03:23:41;;;;;;;10.23;4.80;;;12.40;99.90;;;;;;4987894;28;20118;-55
2022/06/15 03:26:07;;;;;;;10.15;4.70;;;12.40;99.90;;;;;;4988942;28;20018;-56
2022/06/15 03:28:34;;;;;;;7.97;4.05;;;12.30;99.90;;;;;;4988945;28;20026;-57
2022/06/15 03:31:00;;;;;;;11.32;4.47;;;12.30;99.90;;;;;;4988350;28;20562;-53
2022/06/15 03:33:26;;;;;;;9.60;3.92;;;12.40;99.90;;;;;;4988202;28;20072;-54
2022/06/15 03:35:51;;;;;;;9.18;3.95;;;12.30;99.90;;;;;;4988499;28;20062;-54
2022/06/15 03:38:17;;;;;;;8.20;3.88;;;12.20;99.90;;;;;;4987317;28;20030;-55
2022/06/15 03:40:46;;;;;;;10.48;4.15;;;12.20;99.90;;;;;;4988115;28;20030;-56
2022/06/15 03:43:12;;;;;;;11.00;4.53;;;12.20;99.90;;;;;;5004155;28;20026;-55
2022/06/15 03:45:39;;;;;;;7.82;4.15;;;12.30;99.90;;;;;;4988770;28;20041;-57
2022/06/15 03:48:04;;;;;;;16.08;4.50;;;12.40;99.90;;;;;;4988086;28;20403;-57
2022/06/15 03:50:32;;;;;;;5.35;3.80;;;12.40;99.90;;;;;;4988302;28;20034;-55
2022/06/15 03:52:59;;;;;;;9.02;3.67;;;12.50;99.90;;;;;;4989064;28;20069;-55
2022/06/15 03:55:25;;;;;;;9.68;3.78;;;12.60;99.90;;;;;;4988748;28;20599;-56
2022/06/15 03:57:51;;;;;;;8.68;4.10;;;12.50;99.90;;;;;;4980199;28;20415;-54
2022/06/15 04:00:21;;;;;;;15.20;4.55;;;12.60;99.90;;;;;;4989232;28;20034;-55
2022/06/15 04:02:46;;;;;;;8.55;3.90;;;12.60;99.90;;;;;;4984696;28;20029;-55
2022/06/15 04:05:25;;;;;;;9.90;4.60;;;12.60;99.90;;;;;;4986992;28;20027;-53
2022/06/15 04:10:35;;;;;;;10.25;3.35;;;12.70;99.90;;;;;;4989258;28;20041;-56
2022/06/15 04:13:01;;;;;;;7.80;3.55;;;12.70;99.90;;;;;;4987770;28;20026;-55
2022/06/15 04:15:27;;;;;;;7.10;3.70;;;12.80;99.90;;;;;;4988020;28;20038;-56
2022/06/15 04:17:53;;;;;;;7.57;3.47;;;12.80;99.90;;;;;;4985991;28;20049;-56
2022/06/15 04:20:36;;;;;;;6.15;3.10;;;12.90;99.90;;;;;;4985492;28;20049;-55
2022/06/15 04:23:09;;;;;;;8.10;3.43;;;12.90;99.90;;;;;;4988465;28;20451;-59
2022/06/15 04:25:38;;;;;;;7.88;3.47;;;13.00;99.90;;;;;;4986287;28;20364;-53
2022/06/15 04:28:05;;;;;;;8.48;3.80;;;13.10;99.90;;;;;;4987585;28;20345;-54
2022/06/15 04:30:31;;;;;;;8.55;3.80;;;13.20;99.90;;;;;;4987875;28;20030;-55
2022/06/15 04:32:57;;;;;;;5.60;3.20;;;13.20;99.90;;;;;;4987713;28;20030;-55
2022/06/15 04:35:23;;;;;;;10.27;3.45;;;14.00;99.90;;;;;;4983979;28;20031;-57
2022/06/15 04:37:48;;;;;;;5.75;3.10;;;15.30;99.90;;;;;;4978460;28;20089;-51
2022/06/15 04:40:14;;;;;;;4.40;3.22;;;16.90;99.90;;;;;;4986668;28;20034;-59
2022/06/15 04:42:42;;;;;;;5.65;2.72;;;18.40;99.90;;;;;;4989641;28;20026;-56
2022/06/15 04:45:09;;;;;;;5.93;2.45;;;20.20;96.80;;;;;;4988130;28;20532;-59
2022/06/15 04:47:35;;;;;;;5.88;2.30;;;21.50;93.90;;;;;;4988228;28;20034;-54
2022/06/15 04:50:00;;;;;;;4.47;2.30;;;22.80;90.20;;;;;;4989217;28;20122;-58
2022/06/15 04:52:26;;;;;;;5.68;2.25;;;23.60;86.20;;;;;;4986216;28;20464;-59
2022/06/15 04:54:52;;;;;;;6.78;2.33;;;24.30;82.80;;;;;;4985936;28;20037;-53
2022/06/15 04:57:17;;;;;;;6.45;2.75;;;24.80;80.70;;;;;;4989274;28;20551;-58
2022/06/15 04:59:43;;;;;;;5.00;2.33;;;25.10;79.40;;;;;;4991255;28;20040;-56
2022/06/15 05:02:10;;;;;;;5.28;2.40;;;25.70;77.20;;;;;;4991962;28;20113;-60
2022/06/15 05:04:36;;;;;;;6.70;2.45;;;26.10;75.40;;;;;;4990449;28;20049;-58
2022/06/15 05:07:02;;;;;;;5.20;2.20;;;26.70;74.00;;;;;;4990914;28;20468;-58
2022/06/15 05:09:28;;;;;;;4.60;2.05;;;26.90;72.50;;;;;;4991925;28;20037;-53
2022/06/15 05:11:54;;;;;;;6.90;2.20;;;27.50;70.80;;;;;;4992224;28;20439;-59
2022/06/15 05:14:20;;;;;;;6.03;2.22;;;27.50;70.50;;;;;;4991604;28;20069;-55
2022/06/15 05:16:46;;;;;;;3.03;2.00;;;27.70;68.90;;;;;;4983404;28;20073;-58
2022/06/15 05:19:11;;;;;;;4.93;1.65;;;27.70;68.40;;;;;;4991223;28;20027;-56
2022/06/15 05:21:42;;;;;;;3.95;2.05;;;28.00;67.80;;;;;;4990907;28;20023;-60
2022/06/15 05:24:08;;;;;;;5.55;2.45;;;28.20;67.50;;;;;;4988207;28;20025;-57
2022/06/15 05:26:34;;;;;;;5.80;2.20;;;28.30;66.70;;;;;;4989622;28;20105;-59
2022/06/15 05:29:00;;;;;;;6.13;2.25;;;28.40;66.30;;;;;;4991886;28;20061;-61
2022/06/15 05:31:25;;;;;;;4.45;2.03;;;28.10;66.30;;;;;;4991373;28;20058;-59
2022/06/15 05:33:56;;;;;;;4.70;2.33;;;27.80;67.10;;;;;;4989727;28;20547;-57
2022/06/15 05:36:26;;;;;;;6.68;2.35;;;27.90;67.10;;;;;;4990835;28;20038;-58
2022/06/15 05:38:52;;;;;;;7.63;2.65;;;27.50;67.60;;;;;;4991098;28;20027;-58
2022/06/15 05:41:18;;;;;;;5.10;2.03;;;27.90;66.90;;;;;;4992138;28;20034;-58
2022/06/15 05:43:53;;;;;;;6.38;2.00;;;29.00;64.40;;;;;;4990308;28;20107;-58
2022/06/15 05:46:24;;;;;;;6.45;2.47;;;29.10;64.80;;;;;;4989549;28;20033;-58
2022/06/15 05:48:50;;;;;;;6.90;2.00;;;29.50;63.50;;;;;;4989447;28;20096;-51
2022/06/15 05:51:16;;;;;;;4.43;1.92;;;29.50;61.90;;;;;;4991712;28;20265;-59
2022/06/15 05:53:41;;;;;;;7.55;2.28;;;29.40;62.50;;;;;;4989922;28;20445;-59
2022/06/15 05:56:07;;;;;;;8.23;2.03;;;29.20;62.70;;;;;;4989861;28;20026;-61
2022/06/15 05:58:32;;;;;;;4.80;2.17;;;29.70;62.90;;;;;;4989639;28;20444;-59
2022/06/15 06:01:16;;;;;;;6.63;2.08;;;30.20;62.00;;;;;;4989376;28;20031;-61
2022/06/15 06:03:42;;;;;;;5.00;1.98;;;30.40;61.30;;;;;;4982989;28;20030;-60
2022/06/15 06:06:09;;;;;;;5.50;2.47;;;30.20;60.60;;;;;;4990214;28;20029;-59
2022/06/15 06:08:35;;;;;;;5.40;2.17;;;29.80;59.80;;;;;;4990093;28;20041;-61
2022/06/15 06:11:01;;;;;;;6.43;1.90;;;30.30;59.70;;;;;;4990704;28;20027;-60
2022/06/15 06:13:26;;;;;;;4.53;1.75;;;31.10;60.00;;;;;;4988485;28;20388;-58
2022/06/15 06:15:54;;;;;;;5.18;1.63;;;31.20;59.30;;;;;;4990890;28;20033;-58
2022/06/15 06:18:19;;;;;;;7.22;2.65;;;31.50;58.70;;;;;;4988773;28;20037;-60
2022/06/15 06:20:45;;;;;;;5.90;2.10;;;31.80;56.60;;;;;;4989204;28;20038;-61
2022/06/15 06:23:10;;;;;;;4.80;2.00;;;31.80;58.30;;;;;;4988746;28;20030;-53
2022/06/15 06:25:36;;;;;;;7.40;2.53;;;31.00;58.10;;;;;;4989630;28;20076;-56
2022/06/15 06:28:01;;;;;;;4.72;1.67;;;30.70;57.40;;;;;;4980079;28;20018;-59
2022/06/15 06:30:27;;;;;;;6.38;1.92;;;30.80;57.00;;;;;;5009927;28;20435;-60
2022/06/15 06:32:53;;;;;;;6.60;1.83;;;31.00;55.60;;;;;;5015469;28;20033;-58
2022/06/15 06:35:18;;;;;;;7.45;1.77;;;31.60;56.30;;;;;;5008339;28;20088;-59
2022/06/15 06:37:45;;;;;;;5.85;1.65;;;32.00;56.00;;;;;;5009281;28;20121;-57
2022/06/15 06:40:16;;;;;;;4.00;1.65;;;33.40;54.10;;;;;;5008847;28;20026;-53
2022/06/15 06:42:41;;;;;;;7.28;1.77;;;33.60;53.40;;;;;;5008115;28;20040;-58
2022/06/15 06:45:10;;;;;;;5.10;1.48;;;32.20;53.10;;;;;;5001948;28;20018;-58
2022/06/15 06:47:35;;;;;;;6.20;2.00;;;31.60;54.50;;;;;;5007140;28;20423;-54
2022/06/15 06:50:01;;;;;;;10.50;2.75;;;31.60;54.70;;;;;;5009801;28;20021;-50
2022/06/15 06:52:27;;;;;;;8.45;1.83;;;31.80;54.70;;;;;;5008986;28;20046;-61
2022/06/15 06:54:52;;;;;;;4.82;1.63;;;31.90;54.80;;;;;;5008488;28;20057;-56
2022/06/15 06:57:18;;;;;;;3.08;1.48;;;31.80;54.80;;;;;;5007253;28;20042;-57
2022/06/15 06:59:45;;;;;;;3.97;1.63;;;31.50;53.90;;;;;;5008725;28;20036;-56
2022/06/15 07:02:10;;;;;;;3.28;1.60;;;31.60;54.60;;;;;;5007441;28;20446;-58
2022/06/15 07:04:36;;;;;;;2.45;1.38;;;31.60;54.70;;;;;;5003058;28;20026;-54
2022/06/15 07:07:02;;;;;;;4.15;1.70;;;31.60;53.70;;;;;;5006760;28;20116;-60
2022/06/15 07:09:29;;;;;;;5.13;1.52;;;32.20;53.10;;;;;;5007734;28;20034;-59
2022/06/15 07:11:55;;;;;;;3.53;1.50;;;32.30;53.00;;;;;;5006756;28;20511;-60
2022/06/15 07:14:21;;;;;;;5.07;1.58;;;32.20;53.80;;;;;;5005019;28;20041;-60
2022/06/15 07:16:46;;;;;;;4.97;1.95;;;33.20;53.90;;;;;;5008449;28;20061;-60
2022/06/15 07:19:12;;;;;;;2.90;1.65;;;33.40;52.20;;;;;;5008224;28;20535;-59
2022/06/15 07:21:39;;;;;;;4.05;1.67;;;34.50;51.40;;;;;;5005486;28;20026;-61
2022/06/15 07:24:05;;;;;;;5.00;1.80;;;35.60;50.10;;;;;;5005370;28;20570;-58
2022/06/15 07:26:39;;;;;;;5.25;1.67;;;34.90;49.00;;;;;;5007311;28;20034;-60
2022/06/15 07:29:05;;;;;;;5.43;1.90;;;34.40;48.90;;;;;;5008110;28;20049;-61
2022/06/15 07:31:35;;;;;;;4.53;1.50;;;34.30;48.40;;;;;;5008034;28;20038;-59
2022/06/15 07:34:01;;;;;;;6.80;1.85;;;34.70;49.80;;;;;;4997513;28;20046;-60
2022/06/15 07:36:27;;;;;;;8.82;2.42;;;34.20;50.00;;;;;;5008190;28;20450;-60
2022/06/15 07:38:54;;;;;;;4.63;2.00;;;34.70;48.60;;;;;;5007787;28;20022;-56
2022/06/15 07:41:21;;;;;;;4.68;1.92;;;34.50;49.00;;;;;;5008833;28;20412;-61
2022/06/15 07:43:47;;;;;;;3.60;1.80;;;34.40;48.60;;;;;;5007642;28;20495;-58
2022/06/15 07:46:14;;;;;;;4.50;1.70;;;33.90;48.70;;;;;;5008235;28;20522;-59
2022/06/15 07:51:43;;;;;;;7.22;1.60;;;33.40;50.70;;;;;;5009016;28;20501;-60
2022/06/15 07:54:12;;;;;;;5.75;1.98;;;34.20;49.10;;;;;;5006608;28;20041;-60
2022/06/15 07:56:38;;;;;;;6.68;1.77;;;34.50;48.90;;;;;;5009197;28;20029;-59
2022/06/15 07:59:05;;;;;;;4.82;1.40;;;34.40;48.40;;;;;;5005862;28;20025;-56
2022/06/15 08:01:31;;;;;;;7.38;2.03;;;33.90;49.60;;;;;;5003570;28;20364;-61
2022/06/15 08:03:56;;;;;;;7.15;1.50;;;35.10;49.50;;;;;;5008694;28;20470;-62
2022/06/15 08:06:23;;;;;;;3.35;1.60;;;35.20;49.00;;;;;;5008533;28;20065;-60
2022/06/15 08:08:49;;;;;;;5.80;1.95;;;35.20;48.30;;;;;;5006130;28;20057;-59
2022/06/15 08:11:15;;;;;;;3.20;1.77;;;34.30;49.10;;;;;;5008317;28;20026;-61
2022/06/15 08:13:42;;;;;;;7.22;1.98;;;34.50;50.30;;;;;;5007561;28;20499;-61
2022/06/15 08:16:08;;;;;;;3.10;1.63;;;35.10;50.20;;;;;;5007126;28;20029;-62
2022/06/15 08:18:40;;;;;;;3.58;1.63;;;34.80;50.10;;;;;;5005511;28;20061;-61
2022/06/15 08:21:11;;;;;;;3.83;1.73;;;35.10;49.80;;;;;;5004616;28;20458;-58
2022/06/15 08:23:41;;;;;;;8.40;1.52;;;34.90;49.40;;;;;;5005769;28;20048;-61
2022/06/15 08:26:13;;;;;;;6.10;1.80;;;34.40;51.40;;;;;;5005084;28;20117;-61
2022/06/15 08:28:45;;;;;;;9.25;1.75;;;34.40;50.10;;;;;;5006486;28;20026;-58
2022/06/15 08:31:11;;;;;;;5.95;1.58;;;34.60;50.10;;;;;;5007280;28;20026;-61
2022/06/15 08:33:38;;;;;;;4.60;1.77;;;35.20;49.60;;;;;;5005096;28;20442;-61
2022/06/15 08:36:04;;;;;;;6.00;2.22;;;35.50;49.20;;;;;;5012440;28;20037;-58
2022/06/15 08:38:30;;;;;;;3.67;1.88;;;35.20;48.80;;;;;;5001093;28;20056;-56
2022/06/15 08:41:12;;;;;;;5.15;1.80;;;35.50;49.10;;;;;;5010986;28;20765;-59
2022/06/15 08:43:49;;;;;;;5.53;1.75;;;35.30;48.70;;;;;;5008929;28;20061;-60
2022/06/15 08:46:30;;;;;;;4.20;1.63;;;35.30;50.00;;;;;;5010983;28;20130;-60
2022/06/15 08:49:29;;;;;;;5.40;1.63;;;35.80;48.50;;;;;;5010070;28;20109;-59
2022/06/15 08:52:02;;;;;;;5.88;1.50;;;35.10;49.50;;;;;;5007035;28;20034;-58
2022/06/15 08:54:32;;;;;;;7.72;1.95;;;34.70;49.70;;;;;;5007309;28;20033;-59
2022/06/15 08:57:07;;;;;;;3.97;1.40;;;34.70;50.00;;;;;;5012022;28;20084;-61
2022/06/15 08:59:48;;;;;;;7.60;1.75;;;35.00;49.40;;;;;;5009084;28;20705;-60
2022/06/15 09:02:50;;;;;;;9.75;1.63;;;34.80;50.70;;;;;;5010361;28;20041;-58
2022/06/15 09:05:39;;;;;;;3.10;1.42;;;35.20;49.50;;;;;;5008695;28;20645;-61
2022/06/15 09:08:23;;;;;;;4.22;1.48;;;35.20;48.30;;;;;;5008459;28;20030;-61
2022/06/15 09:11:15;;;;;;;3.35;1.65;;;35.40;46.50;;;;;;5007697;28;20026;-59
2022/06/15 09:14:11;;;;;;;7.22;1.50;;;34.90;47.50;;;;;;5002895;28;20107;-58
2022/06/15 09:16:48;;;;;;;2.28;1.63;;;35.00;47.50;;;;;;5042543;28;20038;-57
2022/06/15 09:19:20;;;;;;;2.60;1.40;;;34.90;46.60;;;;;;5007780;28;20038;-61
2022/06/15 09:21:57;;;;;;;3.92;1.42;;;34.90;46.40;;;;;;5009473;28;20034;-58
2022/06/15 09:24:31;;;;;;;4.15;1.23;;;34.60;46.30;;;;;;5009091;28;20109;-57
2022/06/15 09:27:02;;;;;;;3.85;1.60;;;34.50;48.60;;;;;;5010922;28;20026;-61
2022/06/15 09:29:35;;;;;;;6.03;1.40;;;34.70;47.60;;;;;;5007091;28;20033;-58
2022/06/15 09:32:14;;;;;;;4.00;1.70;;;35.10;46.60;;;;;;5007091;28;20292;-57
2022/06/15 09:34:43;;;;;;;5.97;1.63;;;35.20;46.40;;;;;;5008573;28;20160;-61
2022/06/15 09:37:16;;;;;;;6.82;1.67;;;34.50;47.80;;;;;;5010599;28;20065;-61
2022/06/15 09:39:42;;;;;;;2.17;1.40;;;34.50;48.40;;;;;;5005325;28;20053;-59
2022/06/15 09:42:18;;;;;;;5.07;1.50;;;35.10;46.60;;;;;;4991152;28;20169;-58
2022/06/15 09:45:07;;;;;;;4.35;1.40;;;34.90;47.20;;;;;;5005506;28;20028;-60
2022/06/15 09:47:35;;;;;;;3.63;1.42;;;34.70;45.90;;;;;;5006194;28;20731;-58
2022/06/15 09:50:07;;;;;;;6.55;1.40;;;34.30;46.90;;;;;;5009833;28;20084;-61
2022/06/15 09:52:35;;;;;;;;;;;34.60;46.60;;;;;;5010603;28;20427;-58
2022/06/15 09:55:36;;;;;;;2.17;1.27;;;35.20;46.70;;;;;;5007747;28;19972;-60
2022/06/15 09:58:02;;;;;;;3.97;1.30;;;35.30;44.40;;;;;;5005662;28;20025;-58
2022/06/15 10:00:29;;;;;;;3.53;1.10;;;34.80;46.90;;;;;;5008900;28;20418;-57
2022/06/15 10:03:01;;;;;;;6.10;1.60;;;35.30;46.40;;;;;;5006812;28;20084;-59
2022/06/15 10:05:31;;;;;;;;;;;34.40;46.20;;;;;;5007591;28;20079;-57
2022/06/15 10:08:02;;;;;;;4.15;1.50;;;34.40;45.70;;;;;;5008306;28;19917;-57
2022/06/15 10:10:33;;;;;;;3.90;1.50;;;34.10;46.80;;;;;;5010126;28;20048;-57
2022/06/15 10:13:19;;;;;;;4.20;1.75;;;33.40;47.70;;;;;;5003681;28;20399;-55
2022/06/15 10:16:17;;;;;;;3.10;1.45;;;32.70;46.90;;;;;;5004178;28;20415;-55
2022/06/15 10:18:53;;;;;;;5.47;1.63;;;31.90;50.80;;;;;;5003891;28;20508;-59
2022/06/15 10:21:29;;;;;;;11.35;1.75;;;31.80;49.80;;;;;;5006068;28;20451;-57
2022/06/15 10:24:03;;;;;;;4.55;1.85;;;32.10;48.90;;;;;;5006019;28;20041;-60
2022/06/15 10:26:39;;;;;;;4.65;1.45;;;31.80;50.30;;;;;;5004686;28;20026;-55
2022/06/15 10:29:28;;;;;;;4.25;1.58;;;31.60;50.20;;;;;;5006476;28;20404;-56
2022/06/15 10:32:05;;;;;;;2.22;1.33;;;31.60;49.60;;;;;;5010550;28;20088;-60
2022/06/15 10:34:34;;;;;;;5.28;1.65;;;31.60;51.50;;;;;;5006364;28;20038;-56
2022/06/15 10:37:14;;;;;;;4.60;1.55;;;31.70;49.20;;;;;;5001815;28;20025;-58
2022/06/15 10:39:46;;;;;;;9.10;1.50;;;31.50;51.50;;;;;;5002401;28;20499;-55
2022/06/15 10:42:33;;;;;;;6.10;2.05;;;31.70;49.00;;;;;;5001047;28;20641;-54
2022/06/15 10:45:19;;;;;;;4.95;1.17;;;31.00;50.70;;;;;;4996513;28;20385;-56
2022/06/15 10:47:50;;;;;;;3.25;1.30;;;31.00;49.60;;;;;;5002181;28;20068;-57
2022/06/15 10:50:40;;;;;;;4.40;1.40;;;30.90;49.20;;;;;;5004198;28;20068;-53
2022/06/15 10:53:31;;;;;;;6.70;1.20;;;30.70;49.80;;;;;;5006383;28;20037;-53
2022/06/15 11:02:07;;;;;;;4.20;1.48;;;30.00;48.70;;;;;;5007767;28;20130;-57
2022/06/15 11:04:44;;;;;;;9.88;1.77;;;29.90;49.50;;;;;;5007850;28;20117;-55
2022/06/15 11:07:21;;;;;;;5.82;1.50;;;29.80;51.80;;;;;;5008991;28;20022;-58
2022/06/15 11:10:10;;;;;;;4.75;2.00;;;29.80;51.50;;;;;;4997263;28;20034;-57
2022/06/15 11:12:42;;;;;;;3.10;1.48;;;29.70;50.30;;;;;;4994593;28;20096;-59
2022/06/15 11:15:13;;;;;;;5.18;1.33;;;29.70;51.30;;;;;;4992801;28;20034;-58
2022/06/15 11:18:03;;;;;;;8.32;1.70;;;30.00;51.80;;;;;;4997628;28;20029;-57
2022/06/15 11:20:49;;;;;;;6.72;1.60;;;30.00;49.50;;;;;;4995442;28;20030;-58
2022/06/15 11:23:38;;;;;;;4.80;1.15;;;29.90;49.90;;;;;;5001582;28;20510;-57
2022/06/15 11:29:06;;;;;;;1.27;1.05;;;29.50;49.20;;;;;;5003500;28;20052;-58
2022/06/15 11:31:32;;;;;;;2.60;1.30;;;29.40;50.50;;;;;;5007620;28;20030;-59
2022/06/15 11:34:14;;;;;;;2.70;1.60;;;29.50;49.10;;;;;;5007433;28;20026;-57
2022/06/15 11:36:54;;;;;;;7.38;1.80;;;29.20;50.20;;;;;;5001909;28;20471;-57
2022/06/15 11:39:30;;;;;;;5.47;1.85;;;28.90;52.30;;;;;;5006852;28;20060;-54
2022/06/15 11:41:57;;;;;;;4.05;1.70;;;28.90;50.50;;;;;;5008433;28;20026;-55
2022/06/15 11:44:30;;;;;;;2.03;1.30;;;29.10;53.00;;;;;;4999187;28;20403;-59
2022/06/15 11:46:56;;;;;;;;;;;29.10;53.60;;;;;;5005147;28;20030;-52
2022/06/15 11:49:44;;;;;;;6.53;1.77;;;29.10;50.60;;;;;;5008598;28;19987;-59
2022/06/15 11:52:18;;;;;;;2.10;1.15;;;29.30;52.20;;;;;;5006095;28;20105;-60
2022/06/15 11:55:02;;;;;;;6.47;1.80;;;29.40;52.40;;;;;;5006732;28;20026;-59
2022/06/15 11:57:35;;;;;;;2.97;1.65;;;29.00;51.60;;;;;;5007287;28;20160;-58
2022/06/15 12:00:19;;;;;;;4.40;1.60;;;29.10;51.30;;;;;;5006906;28;20048;-58
2022/06/15 12:03:09;;;;;;;5.03;1.40;;;29.20;52.00;;;;;;5007382;28;20026;-59
2022/06/15 12:05:53;;;;;;;5.35;1.75;;;29.20;51.20;;;;;;5008600;28;20041;-59
2022/06/15 12:08:40;;;;;;;3.03;1.40;;;29.20;51.80;;;;;;5009771;28;20092;-58
2022/06/15 12:14:14;;;;;;;4.07;1.58;;;29.00;52.50;;;;;;5008103;28;20550;-56
2022/06/15 12:16:59;;;;;;;3.90;1.23;;;29.10;50.80;;;;;;5010635;28;20591;-59
2022/06/15 12:19:42;;;;;;;3.75;1.33;;;29.30;51.80;;;;;;5011699;28;20048;-56
2022/06/15 12:22:23;;;;;;;3.38;1.55;;;29.30;50.50;;;;;;5006207;28;20033;-55
2022/06/15 12:24:53;;;;;;;3.22;1.52;;;28.90;50.60;;;;;;5009913;28;20037;-56
2022/06/15 12:27:43;;;;;;;6.63;1.80;;;29.00;51.60;;;;;;5006787;28;21771;-55
2022/06/15 12:30:29;;;;;;;6.82;1.67;;;29.20;50.70;;;;;;5009449;28;20030;-57
2022/06/15 12:33:12;;;;;;;7.78;2.10;;;29.10;51.20;;;;;;5006383;28;20105;-53
2022/06/15 12:35:44;;;;;;;;;;;29.00;49.80;;;;;;5010590;28;20033;-59
2022/06/15 12:38:17;;;;;;;8.35;1.60;;;28.90;50.80;;;;;;5009374;28;20346;-59
2022/06/15 12:40:59;;;;;;;;;;;28.70;50.00;;;;;;5012617;28;20029;-59
2022/06/15 12:43:40;;;;;;;4.50;1.98;;;28.60;53.20;;;;;;5008659;28;19923;-57
2022/06/15 12:46:10;;;;;;;7.80;1.88;;;28.40;51.60;;;;;;5010418;28;20024;-57
2022/06/15 12:48:57;;;;;;;3.75;1.73;;;28.30;51.40;;;;;;5008845;28;20388;-59
2022/06/15 12:51:46;;;;;;;9.13;2.70;;;28.40;50.60;;;;;;5012263;28;20026;-59
2022/06/15 12:54:16;;;;;;;7.40;2.65;;;28.40;51.00;;;;;;5011944;28;20041;-59
2022/06/15 12:56:57;;;;;;;4.53;1.67;;;28.50;51.10;;;;;;4994153;28;20127;-57
2022/06/15 12:59:47;;;;;;;2.88;1.50;;;28.50;52.70;;;;;;5008790;28;20101;-59
2022/06/15 13:02:29;;;;;;;4.00;1.98;;;28.50;52.10;;;;;;5009772;28;20080;-57
2022/06/15 13:05:25;;;;;;;4.82;1.60;;;28.30;52.20;;;;;;5009525;28;20120;-51
2022/06/15 13:08:22;;;;;;;5.53;1.60;;;28.40;52.00;;;;;;5010796;28;20036;-58
2022/06/15 13:10:54;;;;;;;10.35;1.90;;;28.50;53.60;;;;;;5010721;28;20530;-56
2022/06/15 13:13:36;;;;;;;4.07;1.25;;;28.70;54.90;;;;;;5011331;28;20080;-57
2022/06/15 13:16:39;;;;;;;3.95;1.70;;;28.80;53.30;;;;;;5011549;28;20037;-57
2022/06/15 13:19:08;;;;;;;2.42;1.25;;;28.60;52.00;;;;;;4992430;28;20072;-57
2022/06/15 13:22:11;;;;;;;2.22;1.30;;;28.40;52.70;;;;;;5007044;28;20041;-58
2022/06/15 13:24:49;;;;;;;3.97;1.60;;;28.50;54.90;;;;;;5010733;28;20507;-58
2022/06/15 13:27:24;;;;;;;4.13;1.58;;;28.60;54.70;;;;;;5010621;28;20056;-59
2022/06/15 13:30:05;;;;;;;7.15;1.50;;;28.50;52.60;;;;;;5011801;28;20030;-59